KRKD/RKD METAR and TAF weather

Enter ICAO airport designator
Station Type Date Time Source
KRKD METAR 2022/01/25 03:56 UTC NOAA

KRKD 250356Z AUTO 05006KT 9SM -SN OVC024 M04/M09 A2994 RMK AO2 SNB14 SLP140 P0000 T10441089 FZRANO


Station Type Date Time Source
KRKD Decoded METAR 2022/01/25 03:56 UTC NOAA

Rockland, Knox County Regional Airport, ME, United States (KRKD) 44-04N 069-06W
Jan 24, 2022 - 10:56 PM EST / 2022.01.25 0356 UTC
Wind: from the NE (050 degrees) at 7 MPH (6 KT):0
Visibility: 9 mile(s):0
Sky conditions: overcast
Weather: light snow
Precipitation last hour: A trace
Temperature: 24.1 F (-4.4 C)
Windchill: 15 F (-9 C):1
Dew Point: 16.0 F (-8.9 C)
Relative Humidity: 70%
Pressure (altimeter): 29.94 in. Hg (1013 hPa)
ob: KRKD 250356Z AUTO 05006KT 9SM -SN OVC024 M04/M09 A2994 RMK AO2 SNB14 SLP140 P0000 T10441089 FZRANO
cycle: 4

Station Type Date Time Source
KRKD TAF 2022/01/25 04:24 UTC NOAA

TAF
AMD KRKD 250422Z 2504/2524 00000KT P6SM BKN025
FM250600 00000KT 1SM -SN BR BKN020
FM250900 VRB03KT 1SM -SN BR OVC008
FM251700 27007KT 5SM BR OVC015
FM252000 27007KT P6SM SCT090

Example: see airport list